Time;durP1;ratioP1;P1;durP2;ratioP2;P2;SDS_P1;SDS_P2;PMS_P1;PMS_P2;Temp;Humidity;BMP_temperature;BMP_pressure;BME280_temperature;BME280_humidity;BME280_pressure;Samples;Min_cycle;Max_cycle;Signal;HPM_P1;HPM_P2
2021/08/26 00:01:15;;;;;;;4.75;1.40;;;;;;;11.86;100.00;100438.47;4885662;29;20417;-87
2021/08/26 00:06:39;;;;;;;5.55;1.17;;;;;;;12.02;100.00;100453.53;4891930;29;20061;-85
2021/08/26 00:09:15;;;;;;;5.40;1.40;;;;;;;11.99;100.00;100448.69;4900171;29;20417;-85
2021/08/26 00:11:44;;;;;;;6.05;1.50;;;;;;;12.03;100.00;100447.00;4887350;29;20428;-85
2021/08/26 00:14:19;;;;;;;6.13;1.52;;;;;;;11.98;100.00;100440.81;4887789;29;20055;-84
2021/08/26 00:16:47;;;;;;;7.53;1.50;;;;;;;12.00;100.00;100446.75;4888867;29;20049;-86
2021/08/26 00:19:21;;;;;;;4.53;1.35;;;;;;;11.91;100.00;100435.69;4895233;29;20048;-84
2021/08/26 00:21:49;;;;;;;7.88;1.60;;;;;;;11.99;100.00;100434.25;4877808;29;20057;-85
2021/08/26 00:24:17;;;;;;;6.03;1.50;;;;;;;11.98;100.00;100433.44;4897299;29;20045;-85
2021/08/26 00:26:51;;;;;;;7.00;1.90;;;;;;;11.94;100.00;100428.84;4881733;29;20049;-85
2021/08/26 00:29:20;;;;;;;7.60;1.70;;;;;;;12.01;100.00;100432.84;4903676;29;20057;-85
2021/08/26 00:31:54;;;;;;;5.30;1.33;;;;;;;11.90;100.00;100432.16;4884013;29;20061;-85
2021/08/26 00:34:27;;;;;;;7.15;1.58;;;;;;;11.84;100.00;100425.16;4884240;29;20053;-85
2021/08/26 00:37:00;;;;;;;7.38;1.60;;;;;;;11.94;100.00;100417.94;4883112;29;20521;-85
2021/08/26 00:39:33;;;;;;;5.25;1.30;;;;;;;11.77;100.00;100413.00;4886015;29;20057;-85
2021/08/26 00:42:07;;;;;;;4.90;1.40;;;;;;;11.97;100.00;100428.28;4875987;29;20048;-85
2021/08/26 00:44:42;;;;;;;4.75;1.52;;;;;;;11.74;100.00;100398.84;4899889;29;20414;-85
2021/08/26 00:47:15;;;;;;;7.15;1.50;;;;;;;11.77;100.00;100421.19;4890270;29;20037;-85
2021/08/26 00:49:51;;;;;;;7.50;1.70;;;;;;;11.73;100.00;100421.75;4891673;29;20067;-85
2021/08/26 00:52:19;;;;;;;4.63;1.20;;;;;;;11.67;100.00;100422.94;4878378;29;20056;-85
2021/08/26 00:54:48;;;;;;;4.28;1.38;;;;;;;11.70;100.00;100410.63;4879783;29;20053;-84
2021/08/26 00:57:22;;;;;;;7.10;1.65;;;;;;;11.58;100.00;100400.94;4878584;29;20045;-85
2021/08/26 00:59:57;;;;;;;5.05;1.35;;;;;;;11.68;100.00;100416.38;4907345;29;20060;-86
2021/08/26 01:02:32;;;;;;;5.25;1.20;;;;;;;11.59;100.00;100418.13;4884124;29;20060;-85
2021/08/26 01:05:12;;;;;;;4.60;1.35;;;;;;;11.54;100.00;100399.91;4892160;29;20053;-85
2021/08/26 01:07:52;;;;;;;4.53;1.27;;;;;;;11.66;100.00;100415.06;4904914;29;20421;-85
2021/08/26 01:10:26;;;;;;;6.18;1.50;;;;;;;11.60;100.00;100419.75;4870122;29;20045;-85
2021/08/26 01:12:56;;;;;;;6.53;1.50;;;;;;;11.61;100.00;100406.94;4911613;29;20501;-84
2021/08/26 01:15:31;;;;;;;5.82;1.50;;;;;;;11.46;100.00;100392.44;4880906;29;20068;-84
2021/08/26 01:18:05;;;;;;;4.93;1.35;;;;;;;11.56;100.00;100416.00;4888400;29;20514;-85
2021/08/26 01:20:38;;;;;;;4.40;1.38;;;;;;;11.56;100.00;100408.63;4880422;29;20521;-84
2021/08/26 01:23:11;;;;;;;5.20;1.35;;;;;;;11.45;100.00;100415.31;4887714;29;20064;-85
2021/08/26 01:25:49;;;;;;;5.43;1.42;;;;;;;11.36;100.00;100412.41;4890379;29;20395;-85
2021/08/26 01:28:49;;;;;;;6.20;1.63;;;;;;;11.41;100.00;100406.09;4898535;29;20406;-85
2021/08/26 01:31:18;;;;;;;6.55;1.40;;;;;;;11.45;100.00;100400.88;4880692;29;20052;-85
2021/08/26 01:33:48;;;;;;;6.95;1.38;;;;;;;11.35;100.00;100399.09;4893225;29;20059;-84
2021/08/26 01:36:23;;;;;;;4.78;1.40;;;;;;;11.45;100.00;100414.50;4883708;29;20048;-85
2021/08/26 01:39:00;;;;;;;5.65;1.27;;;;;;;11.39;100.00;100402.84;4896722;29;20508;-84
2021/08/26 01:41:41;;;;;;;5.28;1.40;;;;;;;11.34;100.00;100398.28;4897172;29;20052;-84
2021/08/26 01:44:10;;;;;;;6.15;1.63;;;;;;;11.34;100.00;100417.34;4887650;29;20056;-85
2021/08/26 01:46:44;;;;;;;5.05;1.40;;;;;;;11.48;100.00;100412.00;4893896;29;20040;-84
2021/08/26 01:49:17;;;;;;;5.13;1.40;;;;;;;11.38;100.00;100420.31;4894697;29;20439;-84
2021/08/26 01:51:50;;;;;;;7.57;1.77;;;;;;;11.36;100.00;100417.84;4877498;29;20061;-85
2021/08/26 01:54:24;;;;;;;5.10;1.25;;;;;;;11.48;100.00;100411.22;4894126;29;20048;-85
2021/08/26 01:56:58;;;;;;;5.68;1.48;;;;;;;11.36;100.00;100415.13;4894640;29;20057;-84
2021/08/26 01:59:32;;;;;;;6.07;1.50;;;;;;;11.34;100.00;100409.19;4894659;29;20060;-84
2021/08/26 02:03:11;;;;;;;6.32;1.50;;;;;;;11.20;100.00;100409.09;4897288;29;20061;-85
2021/08/26 02:05:44;;;;;;;6.72;1.90;;;;;;;11.14;100.00;100406.69;4878769;29;20056;-85
2021/08/26 02:08:13;;;;;;;6.43;1.60;;;;;;;11.13;100.00;100405.06;4882291;29;20490;-85
2021/08/26 02:10:41;;;;;;;7.20;1.50;;;;;;;11.16;100.00;100404.50;4891076;29;20056;-84
2021/08/26 02:13:10;;;;;;;4.72;1.35;;;;;;;11.13;100.00;100396.91;4896907;29;20386;-84
2021/08/26 02:15:43;;;;;;;3.70;1.23;;;;;;;11.09;100.00;100399.41;4889716;29;20060;-85
2021/08/26 02:18:17;;;;;;;6.47;1.20;;;;;;;11.11;100.00;100399.91;4870490;29;20052;-84
2021/08/26 02:20:52;;;;;;;4.82;1.40;;;;;;;10.97;100.00;100394.38;4872372;29;20048;-85
2021/08/26 02:23:25;;;;;;;6.57;1.60;;;;;;;10.99;100.00;100400.34;4869368;29;20497;-85
2021/08/26 02:25:59;;;;;;;8.20;1.98;;;;;;;11.05;100.00;100403.81;4882889;29;20056;-85
2021/08/26 02:28:28;;;;;;;6.00;1.50;;;;;;;11.02;100.00;100409.81;4872971;29;20048;-85
2021/08/26 02:35:08;;;;;;;4.95;1.50;;;;;;;10.93;100.00;100392.50;4901108;29;20388;-85
2021/08/26 02:37:42;;;;;;;5.70;1.48;;;;;;;11.01;100.00;100406.28;4893219;29;20056;-85
2021/08/26 02:40:15;;;;;;;4.10;1.50;;;;;;;10.97;100.00;100401.72;4884054;29;20056;-84
2021/08/26 02:42:48;;;;;;;4.82;1.20;;;;;;;10.95;100.00;100398.47;4899387;29;20057;-85
2021/08/26 02:45:23;;;;;;;6.55;1.73;;;;;;;10.89;100.00;100379.47;4887205;29;20061;-85
2021/08/26 02:47:56;;;;;;;9.02;1.50;;;;;;;10.85;100.00;100367.56;4888486;29;20402;-84
2021/08/26 02:50:24;;;;;;;4.85;1.30;;;;;;;10.93;100.00;100381.63;4887850;29;20043;-84
2021/08/26 02:52:57;;;;;;;4.07;1.30;;;;;;;10.92;100.00;100383.53;4894405;29;20056;-84
2021/08/26 02:55:26;;;;;;;6.10;1.60;;;;;;;11.00;100.00;100390.25;4880768;29;20072;-84
2021/08/26 02:57:59;;;;;;;7.80;1.88;;;;;;;10.91;100.00;100386.53;4888200;29;20045;-85
2021/08/26 03:00:34;;;;;;;6.63;1.67;;;;;;;10.95;100.00;100395.75;4885293;29;20056;-85
2021/08/26 03:03:02;;;;;;;4.43;1.23;;;;;;;10.92;100.00;100390.88;4886992;29;20061;-85
2021/08/26 03:05:30;;;;;;;5.32;1.30;;;;;;;10.92;100.00;100388.16;4893864;29;20049;-85
2021/08/26 03:08:04;;;;;;;7.30;1.70;;;;;;;11.02;100.00;100399.75;4891570;29;20060;-84
2021/08/26 03:10:37;;;;;;;5.63;1.30;;;;;;;11.00;100.00;100406.59;4893198;29;20064;-84
2021/08/26 03:13:10;;;;;;;4.68;1.40;;;;;;;11.02;100.00;100397.03;4914374;29;20059;-84
2021/08/26 03:15:45;;;;;;;9.73;1.75;;;;;;;11.04;100.00;100394.03;4912476;29;20052;-84
2021/08/26 03:18:18;;;;;;;4.40;1.42;;;;;;;11.07;100.00;100396.16;4904430;29;20049;-84
2021/08/26 03:20:47;;;;;;;5.05;1.42;;;;;;;11.11;100.00;100396.41;4884467;29;20366;-85
2021/08/26 03:23:20;;;;;;;7.38;1.80;;;;;;;11.10;100.00;100384.66;4888815;29;20502;-85
2021/08/26 03:25:53;;;;;;;6.00;1.50;;;;;;;11.31;100.00;100387.97;4894415;29;20057;-84
2021/08/26 03:28:21;;;;;;;5.82;1.40;;;;;;;11.25;100.00;100399.22;4901428;29;20056;-85
2021/08/26 03:30:56;;;;;;;5.32;1.48;;;;;;;11.40;100.00;100386.22;4897479;29;20394;-85
2021/08/26 03:33:29;;;;;;;6.15;1.40;;;;;;;11.33;100.00;100390.41;4909172;29;20052;-84
2021/08/26 03:35:58;;;;;;;6.18;1.63;;;;;;;11.31;100.00;100392.59;4895968;29;20060;-84
2021/08/26 03:38:26;;;;;;;6.20;1.60;;;;;;;11.31;100.00;100392.59;4880299;29;20049;-85
2021/08/26 03:40:54;;;;;;;5.10;1.30;;;;;;;11.31;100.00;100389.88;4890441;29;20060;-84
2021/08/26 03:43:27;;;;;;;4.53;1.30;;;;;;;11.33;100.00;100383.03;4905876;29;20073;-84
2021/08/26 03:46:02;;;;;;;6.45;1.55;;;;;;;11.34;100.00;100386.59;4887824;29;20049;-84
2021/08/26 03:48:35;;;;;;;3.72;1.30;;;;;;;11.32;100.00;100392.31;4876509;29;20053;-85
2021/08/26 03:51:08;;;;;;;4.32;1.15;;;;;;;11.28;100.00;100393.19;4872243;29;20521;-84
2021/08/26 03:53:36;;;;;;;4.95;1.30;;;;;;;11.29;100.00;100386.66;4896317;29;20056;-85
2021/08/26 03:56:10;;;;;;;5.18;1.58;;;;;;;11.30;100.00;100383.63;4887444;29;20049;-85
2021/08/26 03:58:43;;;;;;;4.75;1.10;;;;;;;11.29;100.00;100384.72;4907231;29;20060;-85
2021/08/26 04:01:12;;;;;;;4.97;1.40;;;;;;;11.43;100.00;100403.09;4894810;29;20068;-86
2021/08/26 04:03:45;;;;;;;4.18;1.30;;;;;;;11.72;100.00;100408.41;4906153;29;20064;-84
2021/08/26 04:06:19;;;;;;;4.30;1.27;;;;;;;11.53;100.00;100408.38;4886854;29;20067;-84
2021/08/26 04:08:47;;;;;;;5.07;1.30;;;;;;;11.14;100.00;100363.13;4882205;29;20052;-84
2021/08/26 04:11:20;;;;;;;4.07;1.50;;;;;;;11.49;100.00;100408.19;4879303;29;20064;-84
2021/08/26 04:13:53;;;;;;;5.63;1.50;;;;;;;11.46;100.00;100407.94;4908107;29;20079;-84
2021/08/26 04:16:28;;;;;;;3.70;1.20;;;;;;;11.49;100.00;100415.53;4895143;29;20481;-84
2021/08/26 04:18:56;;;;;;;5.25;1.40;;;;;;;11.37;100.00;100410.53;4892933;29;20053;-84
2021/08/26 04:21:29;;;;;;;4.72;1.42;;;;;;;11.50;100.00;100409.81;4889066;29;20829;-84
2021/08/26 04:24:03;;;;;;;4.15;1.17;;;;;;;11.42;100.00;100409.63;4895465;29;20059;-84
2021/08/26 04:26:36;;;;;;;5.45;1.55;;;;;;;11.36;100.00;100398.78;4894722;29;20064;-84
2021/08/26 04:29:10;;;;;;;4.40;1.40;;;;;;;11.39;100.00;100402.84;4873419;29;20052;-84
2021/08/26 04:31:44;;;;;;;4.30;1.30;;;;;;;11.43;100.00;100390.25;4879791;29;20049;-84
2021/08/26 04:34:18;;;;;;;2.97;1.15;;;;;;;11.46;100.00;100391.59;4906779;29;20413;-85
2021/08/26 04:36:51;;;;;;;5.03;1.42;;;;;;;11.48;100.00;100397.56;4897322;29;20063;-85
2021/08/26 04:39:24;;;;;;;6.85;1.75;;;;;;;11.18;100.00;100350.53;4909328;29;20063;-85
2021/08/26 04:41:58;;;;;;;5.38;1.52;;;;;;;11.46;100.00;100388.88;4875394;29;20056;-84
2021/08/26 04:44:26;;;;;;;6.57;1.50;;;;;;;11.56;100.00;100394.19;4887433;29;20053;-85
2021/08/26 04:47:00;;;;;;;4.97;1.20;;;;;;;11.55;100.00;100390.66;4898961;29;20044;-84
2021/08/26 04:49:33;;;;;;;5.63;1.45;;;;;;;11.55;100.00;100401.53;4893761;29;20056;-85
2021/08/26 04:52:07;;;;;;;6.78;1.58;;;;;;;11.74;100.00;100384.41;4878910;29;20791;-84
2021/08/26 04:54:40;;;;;;;5.93;1.30;;;;;;;11.66;100.00;100382.34;4880869;29;20044;-84
2021/08/26 04:57:13;;;;;;;3.10;1.20;;;;;;;11.72;100.00;100386.59;4881161;29;20052;-84
2021/08/26 04:59:41;;;;;;;6.18;1.42;;;;;;;11.69;100.00;100385.28;4905432;29;20052;-84
2021/08/26 05:02:17;;;;;;;5.45;1.30;;;;;;;11.69;100.00;100388.00;4892781;29;20056;-84
2021/08/26 05:04:45;;;;;;;3.78;1.20;;;;;;;11.67;100.00;100378.50;4889568;29;20856;-85
2021/08/26 05:07:20;;;;;;;6.70;1.63;;;;;;;11.73;100.00;100383.59;4883554;29;20044;-85
2021/08/26 05:09:53;;;;;;;3.17;0.93;;;;;;;11.79;100.00;100384.31;4881270;29;20064;-85
2021/08/26 05:12:21;;;;;;;5.95;1.40;;;;;;;11.83;100.00;100388.06;4888694;29;20052;-85
2021/08/26 05:14:50;;;;;;;3.80;1.23;;;;;;;11.86;100.00;100384.78;4879241;29;20059;-85
2021/08/26 05:17:25;;;;;;;4.47;1.23;;;;;;;11.89;100.00;100384.19;4889201;29;20048;-85
2021/08/26 05:19:53;;;;;;;4.50;1.25;;;;;;;11.93;100.00;100386.31;4892425;29;20049;-85
2021/08/26 05:22:26;;;;;;;3.00;1.15;;;;;;;12.04;100.00;100387.78;4891052;29;20064;-84
2021/08/26 05:24:59;;;;;;;4.07;1.10;;;;;;;12.03;100.00;100397.09;4878302;29;20056;-85
2021/08/26 05:27:32;;;;;;;5.70;1.20;;;;;;;12.03;100.00;100394.38;4877958;29;20083;-85
2021/08/26 05:30:07;;;;;;;4.75;1.40;;;;;;;12.00;100.00;100400.41;4872671;29;20115;-85
2021/08/26 05:32:36;;;;;;;3.03;1.10;;;;;;;12.00;100.00;100406.69;4890673;29;20059;-85
2021/08/26 05:35:11;;;;;;;5.50;1.40;;;;;;;11.95;100.00;100420.38;4894252;29;20053;-84
2021/08/26 05:37:39;;;;;;;3.53;1.15;;;;;;;12.01;100.00;100400.09;4888260;29;20061;-84
2021/08/26 05:40:12;;;;;;;5.30;1.23;;;;;;;12.06;100.00;100366.50;4911695;29;20045;-84
2021/08/26 05:42:41;;;;;;;3.85;1.13;;;;;;;12.04;100.00;100374.97;4890407;29;20064;-84
2021/08/26 05:45:09;;;;;;;4.72;1.10;;;;;;;12.05;100.00;100357.50;4880362;29;20052;-84
2021/08/26 05:47:44;;;;;;;5.90;1.35;;;;;;;12.03;100.00;100365.16;4901390;29;20494;-85
2021/08/26 05:50:17;;;;;;;4.35;1.17;;;;;;;12.15;100.00;100388.44;4891932;29;20052;-84
2021/08/26 05:52:51;;;;;;;4.00;1.17;;;;;;;12.14;100.00;100393.09;4892256;29;20052;-84
2021/08/26 05:55:24;;;;;;;6.38;1.38;;;;;;;12.11;100.00;100393.69;4904876;29;20053;-84
2021/08/26 05:57:57;;;;;;;5.55;1.35;;;;;;;12.16;100.00;100409.97;4888781;29;20063;-85
2021/08/26 06:00:25;;;;;;;5.30;1.10;;;;;;;12.18;100.00;100412.41;4901037;29;20049;-85
2021/08/26 06:03:02;;;;;;;6.05;1.08;;;;;;;12.28;100.00;100408.69;4877279;29;20506;-84
2021/08/26 06:05:35;;;;;;;4.28;1.30;;;;;;;12.32;100.00;100409.72;4877937;29;20061;-84
2021/08/26 06:08:04;;;;;;;4.25;1.20;;;;;;;12.38;100.00;100417.53;4891354;29;20414;-85
2021/08/26 06:10:38;;;;;;;3.72;1.30;;;;;;;12.53;100.00;100391.09;4885218;29;20056;-84
2021/08/26 06:16:48;;;;;;;3.63;1.10;;;;;;;12.50;100.00;100421.72;4891612;29;20057;-85
2021/08/26 06:19:23;;;;;;;3.38;0.90;;;;;;;12.67;100.00;100416.50;4879521;29;20063;-85
2021/08/26 06:21:56;;;;;;;3.90;1.08;;;;;;;12.59;100.00;100409.00;4891120;29;20057;-85
2021/08/26 06:24:29;;;;;;;4.35;1.00;;;;;;;12.68;100.00;100409.13;4896320;29;20049;-84
2021/08/26 06:27:03;;;;;;;3.28;1.05;;;;;;;12.75;100.00;100395.88;4896364;29;20494;-85
2021/08/26 06:30:03;;;;;;;2.65;1.00;;;;;;;12.87;100.00;100396.19;4898670;29;20057;-85
2021/08/26 06:32:37;;;;;;;3.78;1.00;;;;;;;13.07;100.00;100399.66;4899537;29;20088;-84
2021/08/26 06:35:14;;;;;;;4.20;1.30;;;;;;;13.13;100.00;100414.81;4876170;29;20057;-84
2021/08/26 06:37:47;;;;;;;4.80;1.17;;;;;;;13.16;100.00;100429.78;4884297;29;20060;-86
2021/08/26 06:40:20;;;;;;;3.20;1.02;;;;;;;13.16;100.00;100436.09;4877957;29;20057;-85
2021/08/26 06:42:54;;;;;;;3.78;1.20;;;;;;;13.17;100.00;100421.28;4888209;29;20490;-87
2021/08/26 06:45:29;;;;;;;3.92;1.02;;;;;;;13.28;100.00;100408.25;4872405;29;20060;-85
2021/08/26 06:48:02;;;;;;;4.13;1.08;;;;;;;13.32;100.00;100401.03;4875884;29;20049;-86
2021/08/26 06:50:32;;;;;;;3.47;1.02;;;;;;;13.26;100.00;100394.09;4896352;29;20056;-83
2021/08/26 06:53:00;;;;;;;3.10;1.00;;;;;;;13.31;100.00;100396.69;4884914;29;20056;-84
2021/08/26 06:55:33;;;;;;;3.08;0.98;;;;;;;13.30;100.00;100407.94;4879060;29;20049;-85
2021/08/26 06:58:07;;;;;;;3.95;0.90;;;;;;;13.37;100.00;100413.84;4874676;29;20064;-83
2021/08/26 07:00:35;;;;;;;3.53;1.10;;;;;;;13.37;100.00;100419.31;4875318;29;20041;-85
2021/08/26 07:03:08;;;;;;;2.58;0.90;;;;;;;13.19;100.00;100415.53;4891569;29;20060;-88
2021/08/26 07:05:39;;;;;;;3.10;0.90;;;;;;;13.35;100.00;100435.16;4877216;29;20519;-84
2021/08/26 07:08:07;;;;;;;3.35;1.70;;;;;;;13.41;100.00;100428.53;4865597;29;20057;-86
2021/08/26 07:10:40;;;;;;;4.15;1.17;;;;;;;13.34;100.00;100419.88;4878354;29;20063;-85
2021/08/26 07:13:21;;;;;;;3.55;1.02;;;;;;;13.31;100.00;100424.00;4899091;29;20053;-84
2021/08/26 07:15:54;;;;;;;3.20;1.00;;;;;;;13.58;100.00;100428.69;4880695;29;20079;-84
2021/08/26 07:18:28;;;;;;;2.80;1.00;;;;;;;13.65;100.00;100416.53;4887189;29;20654;-86
2021/08/26 07:21:05;;;;;;;4.57;1.20;;;;;;;13.53;100.00;100415.13;4884744;29;20079;-85
2021/08/26 07:23:45;;;;;;;2.50;0.90;;;;;;;13.63;100.00;100418.75;4878765;29;21274;-86
2021/08/26 07:26:19;;;;;;;2.40;0.90;;;;;;;13.90;99.47;100418.69;4877222;29;20057;-85
2021/08/26 07:28:54;;;;;;;3.03;1.00;;;;;;;13.82;99.39;100416.69;4890747;29;20474;-88
2021/08/26 07:31:29;;;;;;;2.65;0.80;;;;;;;13.97;100.00;100425.66;4877361;29;20052;-85
2021/08/26 07:34:03;;;;;;;2.88;1.10;;;;;;;14.15;97.66;100434.81;4879727;29;20071;-85
2021/08/26 07:36:39;;;;;;;5.03;1.00;;;;;;;14.28;96.68;100434.78;4878484;29;21528;-85
2021/08/26 07:39:12;;;;;;;2.67;0.90;;;;;;;14.21;95.77;100425.38;4879917;29;20497;-85
2021/08/26 07:41:45;;;;;;;3.47;1.00;;;;;;;14.21;96.53;100414.41;4879722;29;20048;-85
2021/08/26 07:44:18;;;;;;;2.28;0.85;;;;;;;14.39;96.40;100420.81;4873638;29;20057;-85
2021/08/26 07:46:52;;;;;;;2.20;0.80;;;;;;;14.55;95.97;100419.31;4880118;29;20953;-85
2021/08/26 07:49:25;;;;;;;3.20;1.00;;;;;;;14.36;92.90;100426.94;4878933;29;20114;-86
2021/08/26 07:51:59;;;;;;;1.40;0.60;;;;;;;14.52;94.53;100416.41;4881013;29;20057;-85
2021/08/26 07:54:33;;;;;;;1.63;0.65;;;;;;;14.71;94.54;100411.56;4878283;29;20063;-84
2021/08/26 07:57:06;;;;;;;3.05;0.77;;;;;;;14.58;91.04;100413.22;4880101;29;20056;-85
2021/08/26 08:00:12;;;;;;;1.52;0.60;;;;;;;14.66;92.44;100414.41;4877358;29;20620;-86
2021/08/26 08:02:41;;;;;;;2.22;0.80;;;;;;;14.54;91.41;100416.91;4894078;29;20059;-86
2021/08/26 08:05:17;;;;;;;3.30;0.80;;;;;;;14.69;93.61;100418.47;4877152;29;20076;-85
2021/08/26 08:07:46;;;;;;;2.25;0.82;;;;;;;14.61;89.00;100420.81;4895138;29;20060;-86
2021/08/26 08:10:23;;;;;;;1.27;0.55;;;;;;;14.76;90.80;100419.66;4879683;29;20063;-86
2021/08/26 08:12:56;;;;;;;1.67;0.60;;;;;;;14.92;90.12;100417.28;4875924;29;20056;-86
2021/08/26 08:15:27;;;;;;;1.23;0.68;;;;;;;14.65;90.20;100418.28;4895596;29;20064;-86
2021/08/26 08:18:00;;;;;;;3.57;0.80;;;;;;;14.57;88.53;100414.34;4875553;29;20056;-87
2021/08/26 08:20:29;;;;;;;3.38;0.77;;;;;;;15.02;90.33;100423.63;4890750;29;20064;-85
2021/08/26 08:23:03;;;;;;;2.05;0.70;;;;;;;14.96;88.89;100417.47;4879448;29;20049;-87
2021/08/26 08:25:41;;;;;;;1.40;0.60;;;;;;;15.16;88.71;100429.78;4893544;29;20432;-86
2021/08/26 08:28:15;;;;;;;2.55;0.80;;;;;;;14.71;84.72;100406.06;4895803;29;20056;-86
2021/08/26 08:30:55;;;;;;;1.70;0.60;;;;;;;15.10;84.30;100414.63;4895431;29;20052;-87
2021/08/26 08:33:28;;;;;;;2.50;0.63;;;;;;;15.23;86.84;100415.63;4882753;29;20064;-86
2021/08/26 08:36:01;;;;;;;0.47;0.38;;;;;;;15.74;85.87;100416.06;4882473;29;20056;-86
2021/08/26 08:38:36;;;;;;;0.75;0.35;;;;;;;15.58;79.08;100415.72;4880922;29;20056;-87
2021/08/26 08:41:10;;;;;;;1.25;0.40;;;;;;;15.15;78.11;100422.72;4882652;29;20063;-87
2021/08/26 08:43:43;;;;;;;0.95;0.45;;;;;;;15.04;78.42;100416.69;4899700;29;20162;-86
2021/08/26 08:46:20;;;;;;;1.95;0.60;;;;;;;15.17;75.89;100425.94;4887014;29;20060;-84
2021/08/26 08:48:54;;;;;;;1.60;0.40;;;;;;;15.15;73.46;100436.41;4887329;29;20052;-86
2021/08/26 08:51:24;;;;;;;0.40;0.30;;;;;;;15.34;72.70;100427.13;4900435;29;20076;-86
2021/08/26 08:53:58;;;;;;;1.23;0.40;;;;;;;15.39;72.40;100414.06;4885434;29;20057;-86
2021/08/26 08:56:31;;;;;;;1.73;0.50;;;;;;;15.43;70.03;100427.97;4887611;29;20057;-85
2021/08/26 08:59:05;;;;;;;1.45;0.40;;;;;;;15.31;68.69;100414.84;4886402;29;20071;-86
2021/08/26 09:01:38;;;;;;;0.75;0.30;;;;;;;15.49;69.99;100434.88;4885493;29;20064;-87
2021/08/26 09:04:08;;;;;;;0.85;0.30;;;;;;;15.61;71.03;100431.53;4887665;29;20071;-85
2021/08/26 09:06:50;;;;;;;1.05;0.45;;;;;;;15.70;71.51;100426.06;4886833;29;20060;-86
2021/08/26 09:09:21;;;;;;;0.80;0.30;;;;;;;15.56;68.68;100437.16;4885456;29;20060;-86
2021/08/26 09:11:51;;;;;;;1.35;0.43;;;;;;;15.57;67.10;100419.59;4898773;29;20060;-86
2021/08/26 09:14:25;;;;;;;0.47;0.30;;;;;;;15.57;66.65;100442.34;4900978;29;20072;-85
2021/08/26 09:16:58;;;;;;;0.52;0.25;;;;;;;15.71;66.65;100428.47;4881600;29;20057;-86
2021/08/26 09:19:33;;;;;;;0.52;0.20;;;;;;;15.91;65.69;100429.84;4899483;29;20677;-85
2021/08/26 09:22:09;;;;;;;0.38;0.30;;;;;;;15.45;67.54;100432.00;4883285;29;20056;-85
2021/08/26 09:24:46;;;;;;;0.47;0.30;;;;;;;15.47;66.20;100435.22;4885410;29;20537;-86
2021/08/26 09:27:38;;;;;;;2.05;0.40;;;;;;;15.20;64.31;100444.47;4900014;29;20446;-87
2021/08/26 09:30:13;;;;;;;1.05;0.40;;;;;;;15.06;66.40;100433.63;4886967;29;20052;-86
2021/08/26 09:32:49;;;;;;;0.73;0.30;;;;;;;15.53;66.54;100437.81;4899422;29;20790;-86
2021/08/26 09:35:19;;;;;;;0.55;0.30;;;;;;;15.81;64.67;100433.69;4884668;29;20049;-86
2021/08/26 09:37:55;;;;;;;0.43;0.40;;;;;;;15.39;62.81;100397.59;4898446;29;20065;-86
2021/08/26 09:40:41;;;;;;;2.47;0.30;;;;;;;15.32;65.21;100427.44;4884556;29;20053;-85
2021/08/26 09:43:09;;;;;;;0.47;0.25;;;;;;;15.63;66.34;100442.97;4885827;29;20678;-86
2021/08/26 09:45:49;;;;;;;0.38;0.20;;;;;;;15.35;64.94;100410.34;4898565;29;20060;-85
2021/08/26 09:48:23;;;;;;;0.68;0.28;;;;;;;15.27;66.74;100435.78;4900038;29;20057;-86
2021/08/26 09:50:53;;;;;;;0.20;0.20;;;;;;;15.61;69.20;100426.84;4884933;29;20050;-85
2021/08/26 09:53:34;;;;;;;2.47;0.40;;;;;;;15.72;67.38;100440.28;4882108;29;20065;-86
2021/08/26 09:56:08;;;;;;;1.40;0.30;;;;;;;15.89;64.24;100442.25;4886283;29;20056;-84
2021/08/26 09:58:42;;;;;;;0.82;0.30;;;;;;;15.92;66.43;100436.13;4891472;29;20067;-85
2021/08/26 10:01:18;;;;;;;0.60;0.30;;;;;;;15.59;66.24;100436.53;4886544;29;20808;-86
2021/08/26 10:03:47;;;;;;;1.05;0.30;;;;;;;15.29;65.00;100439.84;4889282;29;20796;-86
2021/08/26 10:06:20;;;;;;;0.30;0.30;;;;;;;15.16;65.07;100435.28;4886131;29;20914;-85
2021/08/26 10:08:54;;;;;;;1.75;0.30;;;;;;;15.24;67.64;100445.47;4900750;29;20053;-86
2021/08/26 10:11:31;;;;;;;0.70;0.28;;;;;;;15.04;63.78;100437.81;4884966;29;20056;-85
2021/08/26 10:14:05;;;;;;;0.30;0.30;;;;;;;14.98;66.66;100441.81;4901656;29;20056;-84
2021/08/26 10:16:41;;;;;;;1.13;0.30;;;;;;;14.94;66.69;100436.16;4886001;29;20067;-86
2021/08/26 10:19:14;;;;;;;1.00;0.30;;;;;;;15.21;68.16;100435.13;4902945;29;20390;-85
2021/08/26 10:21:47;;;;;;;0.95;0.30;;;;;;;16.03;65.10;100431.13;4886326;29;20796;-86
2021/08/26 10:24:19;;;;;;;1.45;0.30;;;;;;;16.02;60.56;100433.06;4906779;29;20056;-89
2021/08/26 10:26:54;;;;;;;2.13;0.40;;;;;;;16.06;63.66;100431.28;4889816;29;20059;-88
2021/08/26 10:29:28;;;;;;;0.22;0.20;;;;;;;16.13;64.36;100434.34;4889185;29;20071;-86
2021/08/26 10:31:59;;;;;;;0.45;0.30;;;;;;;15.58;62.00;100443.16;4884997;29;20079;-86
2021/08/26 10:34:31;;;;;;;0.47;0.30;;;;;;;15.37;62.19;100441.00;4891124;29;20064;-86
2021/08/26 10:37:18;;;;;;;;;;;;;;;15.56;61.66;100439.91;4890720;29;20056;-87
2021/08/26 10:39:51;;;;;;;;;;;;;;;15.64;61.49;100448.16;4903900;29;19931;-85
2021/08/26 10:42:45;;;;;;;0.75;0.30;;;;;;;15.73;64.04;100447.34;4888644;29;20442;-85
2021/08/26 10:45:22;;;;;;;3.33;0.25;;;;;;;15.86;62.45;100435.47;4901608;29;20713;-86
2021/08/26 10:48:14;;;;;;;0.55;0.30;;;;;;;16.14;61.58;100435.97;4888187;29;20068;-85
2021/08/26 10:51:06;;;;;;;0.43;0.30;;;;;;;16.33;64.47;100432.88;4903277;29;20057;-86
2021/08/26 10:53:41;;;;;;;1.00;0.30;;;;;;;16.41;61.62;100447.75;4900352;29;20061;-85
2021/08/26 10:56:18;;;;;;;0.57;0.30;;;;;;;15.93;63.02;100441.28;4886205;29;20674;-86
2021/08/26 10:58:53;;;;;;;0.80;0.30;;;;;;;15.53;64.72;100444.09;4887612;29;21294;-85
2021/08/26 11:01:35;;;;;;;0.80;0.30;;;;;;;15.39;66.63;100452.44;4887962;29;20056;-86
2021/08/26 11:04:08;;;;;;;1.35;0.40;;;;;;;15.13;66.10;100444.97;4901575;29;20063;-85
2021/08/26 11:06:42;;;;;;;1.33;0.32;;;;;;;15.29;66.30;100467.25;4886750;29;20063;-85
2021/08/26 11:09:40;;;;;;;0.75;0.30;;;;;;;15.19;67.89;100453.84;4882956;29;20060;-85
2021/08/26 11:12:24;;;;;;;0.90;0.30;;;;;;;15.07;68.00;100465.41;4885260;29;20064;-86
2021/08/26 11:15:01;;;;;;;3.20;0.50;;;;;;;15.14;68.64;100470.44;4885424;29;20044;-87
2021/08/26 11:17:37;;;;;;;0.20;0.20;;;;;;;14.89;68.79;100472.72;4881596;29;20053;-85
2021/08/26 11:20:32;;;;;;;1.27;0.30;;;;;;;14.81;69.16;100489.13;4882539;29;21118;-86
2021/08/26 11:23:10;;;;;;;0.80;0.30;;;;;;;14.59;69.42;100480.56;4884959;29;20401;-85
2021/08/26 11:25:47;;;;;;;1.02;0.30;;;;;;;14.68;69.76;100483.41;4901424;29;20087;-86
2021/08/26 11:28:33;;;;;;;2.33;0.30;;;;;;;14.65;69.41;100491.41;4897620;29;20057;-85
2021/08/26 11:31:21;;;;;;;0.40;0.30;;;;;;;14.87;71.72;100496.06;4883859;29;20060;-85
2021/08/26 11:33:55;;;;;;;0.22;0.22;;;;;;;14.77;70.32;100480.69;4898229;29;20061;-85
2021/08/26 11:36:25;;;;;;;0.20;0.20;;;;;;;14.81;71.40;100487.19;4885998;29;20053;-92
2021/08/26 11:38:58;;;;;;;0.85;0.30;;;;;;;14.72;71.30;100500.00;4882421;29;20048;-85
2021/08/26 11:41:31;;;;;;;1.90;0.45;;;;;;;14.71;70.96;100487.44;4879536;29;20049;-85
2021/08/26 11:44:14;;;;;;;0.55;0.40;;;;;;;14.61;72.10;100496.66;4882965;29;20049;-86
2021/08/26 11:46:53;;;;;;;1.08;0.35;;;;;;;14.53;71.36;100481.81;4882860;29;20065;-87
2021/08/26 11:49:36;;;;;;;0.47;0.30;;;;;;;14.64;71.79;100496.09;4897054;29;20567;-85
2021/08/26 11:52:07;;;;;;;1.23;0.35;;;;;;;14.40;70.87;100501.84;4895649;29;20067;-87
2021/08/26 11:54:43;;;;;;;1.38;0.40;;;;;;;14.41;71.73;100506.19;4901255;29;20061;-84
2021/08/26 11:57:15;;;;;;;0.30;0.30;;;;;;;14.44;73.61;100514.63;4882219;29;20755;-84
2021/08/26 12:00:06;;;;;;;0.80;0.40;;;;;;;14.43;70.98;100504.78;4886241;29;20056;-88
2021/08/26 12:02:42;;;;;;;0.85;0.30;;;;;;;14.53;71.39;100505.63;4881249;29;20067;-89
2021/08/26 12:05:16;;;;;;;0.55;0.32;;;;;;;14.57;71.53;100493.75;4881677;29;20413;-85